Time;durP1;ratioP1;P1;durP2;ratioP2;P2;SDS_P1;SDS_P2;PMS_P1;PMS_P2;Temp;Humidity;BMP_temperature;BMP_pressure;BME280_temperature;BME280_humidity;BME280_pressure;Samples;Min_cycle;Max_cycle;Signal;HPM_P1;HPM_P2
2022/09/18 00:01:39;;;;;;;;;1.00;1.00;;;;;22.38;53.79;99536.55;110461;1264;14105;-58
2022/09/18 00:04:06;;;;;;;;;1.00;1.00;;;;;22.37;53.75;99534.23;110483;1264;12732;-60
2022/09/18 00:06:34;;;;;;;;;1.67;1.00;;;;;22.37;53.73;99534.95;110477;1265;14193;-60
2022/09/18 00:09:01;;;;;;;;;1.00;1.00;;;;;22.36;53.79;99532.56;110481;1264;14889;-59
2022/09/18 00:11:28;;;;;;;;;1.00;1.00;;;;;22.36;53.72;99528.58;110452;1264;14875;-58
2022/09/18 00:13:56;;;;;;;;;1.00;1.00;;;;;22.36;53.76;99532.40;110491;1265;15176;-61
2022/09/18 00:16:23;;;;;;;;;1.00;1.00;;;;;22.37;53.69;99527.61;110526;1265;12823;-60
2022/09/18 00:18:50;;;;;;;;;1.00;1.00;;;;;22.37;53.72;99531.59;110448;1264;24079;-58
2022/09/18 00:21:17;;;;;;;;;1.67;1.67;;;;;22.36;53.76;99527.91;110430;1264;14289;-59
2022/09/18 00:23:44;;;;;;;;;1.00;1.00;;;;;22.36;53.79;99526.40;110486;1265;13170;-59
2022/09/18 00:26:12;;;;;;;;;1.00;1.00;;;;;22.36;53.72;99525.13;110425;1265;14269;-58
2022/09/18 00:28:39;;;;;;;;;1.00;1.00;;;;;22.36;53.67;99522.62;110448;1264;14412;-59
2022/09/18 00:31:07;;;;;;;;;1.00;1.00;;;;;22.36;53.74;99520.23;110453;1264;12981;-59
2022/09/18 00:33:34;;;;;;;;;1.00;1.00;;;;;22.36;53.68;99525.39;110458;1264;14293;-60
2022/09/18 00:36:02;;;;;;;;;1.00;1.00;;;;;22.35;53.67;99528.87;110427;1264;15376;-57
2022/09/18 00:38:30;;;;;;;;;1.00;1.00;;;;;22.37;53.64;99529.54;110455;1263;14544;-60
2022/09/18 00:40:58;;;;;;;;;1.00;1.00;;;;;22.37;53.69;99526.64;110442;1262;14600;-60
2022/09/18 00:43:25;;;;;;;;;1.00;1.00;;;;;22.37;53.70;99522.86;110504;1265;13381;-61
2022/09/18 00:45:53;;;;;;;;;1.00;1.00;;;;;22.36;53.72;99525.51;110462;1264;16535;-58
2022/09/18 00:48:20;;;;;;;;;1.00;1.00;;;;;22.36;53.68;99522.27;110460;1264;15043;-60
2022/09/18 00:50:47;;;;;;;;;1.00;1.00;;;;;22.36;53.74;99520.81;110465;1265;14516;-60
2022/09/18 00:53:14;;;;;;;;;1.00;1.00;;;;;22.35;53.78;99519.97;110467;1264;13830;-58
2022/09/18 00:55:42;;;;;;;;;1.00;1.00;;;;;22.36;53.69;99523.33;110416;1262;14209;-59
2022/09/18 00:58:09;;;;;;;;;1.00;1.00;;;;;22.35;53.70;99520.14;110486;1264;13068;-60
2022/09/18 01:00:37;;;;;;;;;1.33;1.00;;;;;22.37;53.71;99518.33;110405;1264;14718;-59
2022/09/18 01:03:04;;;;;;;;;1.00;1.00;;;;;22.37;53.66;99519.96;110458;1264;14609;-61
2022/09/18 01:05:31;;;;;;;;;1.00;1.00;;;;;22.34;53.74;99521.35;110423;1264;13160;-61
2022/09/18 01:07:58;;;;;;;;;1.00;1.00;;;;;22.35;53.78;99519.96;110408;1264;13834;-60
2022/09/18 01:10:26;;;;;;;;;1.00;1.00;;;;;22.36;53.70;99523.17;110484;1264;13090;-59
2022/09/18 01:12:54;;;;;;;;;1.00;1.00;;;;;22.36;53.61;99524.63;110461;1262;15297;-60
2022/09/18 01:15:22;;;;;;;;;1.00;1.00;;;;;22.35;53.65;99523.88;110447;1264;15188;-61
2022/09/18 01:17:49;;;;;;;;;1.00;1.00;;;;;22.36;53.66;99528.03;110467;1264;14314;-60
2022/09/18 01:20:17;;;;;;;;;1.00;1.00;;;;;22.37;53.74;99528.11;110438;1264;14642;-60
2022/09/18 01:22:44;;;;;;;;;1.00;1.00;;;;;22.36;53.65;99528.23;110397;1264;15027;-60
2022/09/18 01:25:11;;;;;;;;;1.33;1.00;;;;;22.36;53.61;99526.84;110484;1264;13135;-60
2022/09/18 01:27:39;;;;;;;;;1.00;1.00;;;;;22.34;53.63;99526.77;110447;1264;14080;-62
2022/09/18 01:30:06;;;;;;;;;1.00;1.00;;;;;22.34;53.64;99531.68;110439;1263;13360;-58
2022/09/18 01:32:33;;;;;;;;;1.00;1.00;;;;;22.34;53.68;99527.73;110447;1264;14500;-59
2022/09/18 01:35:00;;;;;;;;;1.00;1.00;;;;;22.35;53.57;99524.70;110410;1265;14693;-59
2022/09/18 01:37:28;;;;;;;;;1.00;1.00;;;;;22.34;53.70;99525.92;110515;1264;13149;-57
2022/09/18 01:39:55;;;;;;;;;1.00;1.00;;;;;22.33;53.65;99525.55;110475;1265;13807;-61
2022/09/18 01:42:22;;;;;;;;;1.00;1.00;;;;;22.34;53.63;99526.30;110455;1264;13850;-60
2022/09/18 01:44:50;;;;;;;;;1.00;1.00;;;;;22.34;53.57;99525.84;110489;1262;14868;-58
2022/09/18 01:47:17;;;;;;;;;1.00;1.00;;;;;22.35;53.58;99522.77;110440;1264;14736;-61
2022/09/18 01:49:44;;;;;;;;;1.00;1.00;;;;;22.34;53.56;99525.20;110408;1263;21709;-60
2022/09/18 01:52:12;;;;;;;;;1.00;1.00;;;;;22.35;53.46;99525.05;110515;1264;12678;-59
2022/09/18 01:54:39;;;;;;;;;1.50;1.00;;;;;22.33;53.55;99526.10;110452;1264;14324;-59
2022/09/18 01:57:06;;;;;;;;;1.00;1.00;;;;;22.34;53.43;99522.14;110448;1264;14396;-59
2022/09/18 01:59:33;;;;;;;;;2.00;1.00;;;;;22.33;53.49;99523.33;110400;1264;13778;-59
2022/09/18 02:02:01;;;;;;;;;1.00;1.00;;;;;22.34;53.51;99520.05;110480;1265;13844;-58
2022/09/18 02:04:28;;;;;;;;;2.00;1.00;;;;;22.33;53.51;99523.20;110492;1264;12871;-61
2022/09/18 02:06:56;;;;;;;;;1.00;1.00;;;;;22.32;53.53;99519.35;110412;1264;14279;-60
2022/09/18 02:09:23;;;;;;;;;1.00;1.00;;;;;22.32;53.48;99518.92;110431;1264;15039;-60
2022/09/18 02:11:51;;;;;;;;;1.00;1.00;;;;;22.33;53.40;99516.25;110438;1264;12941;-59
2022/09/18 02:14:18;;;;;;;;;1.00;1.00;;;;;22.33;53.41;99515.95;110466;1263;14498;-61
2022/09/18 02:16:45;;;;;;;;;1.00;1.00;;;;;22.33;53.42;99518.83;110440;1263;13775;-59
2022/09/18 02:19:13;;;;;;;;;1.00;1.00;;;;;22.33;53.40;99521.02;110495;1264;12835;-61
2022/09/18 02:21:40;;;;;;;;;1.00;1.00;;;;;22.32;53.44;99519.31;110448;1264;14053;-62
2022/09/18 02:24:07;;;;;;;;;1.00;1.00;;;;;22.33;53.39;99520.19;110456;1264;14680;-61
2022/09/18 02:26:35;;;;;;;;;1.00;1.00;;;;;22.32;53.41;99523.21;110444;1264;14741;-58
2022/09/18 02:29:02;;;;;;;;;1.00;1.00;;;;;22.33;53.43;99523.08;110485;1263;14190;-59
2022/09/18 02:31:29;;;;;;;;;1.00;1.00;;;;;22.32;53.35;99523.55;110466;1265;12937;-60
2022/09/18 02:33:57;;;;;;;;;1.00;1.00;;;;;22.33;53.37;99524.84;110456;1264;14402;-60
2022/09/18 02:36:24;;;;;;;;;1.00;1.00;;;;;22.32;53.31;99524.36;110410;1264;14339;-60
2022/09/18 02:38:51;;;;;;;;;1.00;1.00;;;;;22.32;53.32;99525.31;110386;1265;14182;-61
2022/09/18 02:41:19;;;;;;;;;1.00;1.00;;;;;22.32;53.28;99522.34;110423;1264;14760;-61
2022/09/18 02:43:46;;;;;;;;;1.00;1.00;;;;;22.30;53.35;99524.33;110401;1264;14868;-62
2022/09/18 02:46:13;;;;;;;;;1.00;1.00;;;;;22.30;53.32;99529.06;110452;1265;12716;-61
2022/09/18 02:48:40;;;;;;;;;1.00;1.00;;;;;22.32;53.30;99530.64;110466;1263;14887;-60
2022/09/18 02:51:08;;;;;;;;;1.00;1.00;;;;;22.32;53.27;99536.45;110439;1263;14561;-59
2022/09/18 02:53:35;;;;;;;;;1.00;1.00;;;;;22.31;53.24;99541.82;110437;1264;13776;-61
2022/09/18 02:56:02;;;;;;;;;1.00;1.00;;;;;22.32;53.29;99541.35;110461;1263;12592;-60
2022/09/18 02:58:30;;;;;;;;;1.00;1.00;;;;;22.31;53.27;99541.03;110506;1264;12571;-59
2022/09/18 03:00:57;;;;;;;;;1.00;1.00;;;;;22.31;53.23;99541.15;110438;1264;13053;-59
2022/09/18 03:03:24;;;;;;;;;1.00;1.00;;;;;22.31;53.11;99536.95;110474;1262;13901;-61
2022/09/18 03:05:51;;;;;;;;;1.00;1.00;;;;;22.31;53.21;99537.42;110461;1264;13381;-60
2022/09/18 03:08:19;;;;;;;;;1.33;1.00;;;;;22.31;53.15;99537.67;110443;1265;13047;-60
2022/09/18 03:10:46;;;;;;;;;1.00;1.00;;;;;22.30;53.16;99537.12;110428;1264;14998;-60
2022/09/18 03:13:13;;;;;;;;;1.00;1.00;;;;;22.31;53.14;99533.89;110483;1264;12668;-59
2022/09/18 03:15:40;;;;;;;;;1.00;1.00;;;;;22.31;53.11;99536.87;110411;1263;13293;-60
2022/09/18 03:18:08;;;;;;;;;1.00;1.00;;;;;22.29;53.07;99535.40;110392;1264;13510;-59
2022/09/18 03:20:35;;;;;;;;;1.00;1.00;;;;;22.30;53.09;99539.48;110355;1264;13110;-60
2022/09/18 03:23:02;;;;;;;;;1.00;1.00;;;;;22.29;53.09;99536.83;110477;1263;12735;-60
2022/09/18 03:25:29;;;;;;;;;1.00;1.00;;;;;22.29;53.01;99533.80;110510;1264;13154;-57
2022/09/18 03:27:57;;;;;;;;;2.00;1.00;;;;;22.30;53.06;99533.55;110467;1264;13084;-60
2022/09/18 03:30:24;;;;;;;;;1.00;1.00;;;;;22.30;53.03;99530.23;110460;1264;12904;-62
2022/09/18 03:32:52;;;;;;;;;1.00;1.00;;;;;22.30;53.03;99533.43;110499;1264;12754;-60
2022/09/18 03:35:19;;;;;;;;;1.00;1.00;;;;;22.29;53.05;99535.40;110453;1262;12733;-59
2022/09/18 03:37:46;;;;;;;;;1.00;1.00;;;;;22.30;52.96;99535.49;110459;1264;12973;-60
2022/09/18 03:40:14;;;;;;;;;1.00;1.00;;;;;22.30;53.01;99535.33;110517;1264;13198;-61
2022/09/18 03:42:41;;;;;;;;;1.00;1.00;;;;;22.31;52.92;99536.88;110453;1262;13058;-60
2022/09/18 03:45:09;;;;;;;;;1.00;1.00;;;;;22.29;52.95;99535.98;110472;1264;12473;-61
2022/09/18 03:47:36;;;;;;;;;1.00;1.00;;;;;22.29;52.92;99537.08;110450;1262;12892;-59
2022/09/18 03:50:03;;;;;;;;;1.00;1.00;;;;;22.30;52.93;99540.77;110489;1262;12530;-60
2022/09/18 03:52:30;;;;;;;;;1.00;1.00;;;;;22.28;52.90;99538.88;110465;1264;13058;-60
2022/09/18 03:54:58;;;;;;;;;1.00;1.00;;;;;22.27;52.90;99541.00;110442;1262;13334;-60
2022/09/18 03:57:25;;;;;;;;;1.00;1.00;;;;;22.27;52.90;99544.39;110426;1264;14699;-58
2022/09/18 03:59:52;;;;;;;;;1.67;1.00;;;;;22.28;52.87;99541.45;110358;1265;14868;-60
2022/09/18 04:02:20;;;;;;;;;1.00;1.00;;;;;22.27;52.88;99541.87;110467;1264;17148;-58
2022/09/18 04:04:47;;;;;;;;;1.00;1.00;;;;;22.27;52.87;99541.95;110470;1264;14057;-60
2022/09/18 04:07:15;;;;;;;;;1.00;1.00;;;;;22.27;52.82;99542.52;110442;1264;13032;-61
2022/09/18 04:09:43;;;;;;;;;1.00;1.00;;;;;22.27;52.83;99538.69;110354;1264;14630;-60
2022/09/18 04:12:10;;;;;;;;;1.00;1.00;;;;;22.27;52.78;99534.48;110465;1265;14411;-61
2022/09/18 04:14:37;;;;;;;;;1.00;1.00;;;;;22.27;52.76;99537.80;110459;1265;16701;-62
2022/09/18 04:17:05;;;;;;;;;1.00;1.00;;;;;22.26;52.76;99538.06;110434;1264;14235;-58
2022/09/18 04:19:32;;;;;;;;;1.00;1.00;;;;;22.26;52.80;99536.64;110463;1264;13175;-59
2022/09/18 04:21:59;;;;;;;;;1.00;1.00;;;;;22.27;52.74;99534.70;110283;1264;14826;-59
2022/09/18 04:24:27;;;;;;;;;2.00;2.00;;;;;22.27;52.76;99534.32;110294;1264;14506;-60
2022/09/18 04:26:55;;;;;;;;;1.00;1.00;;;;;22.26;52.71;99535.07;110437;1263;14647;-59
2022/09/18 04:29:22;;;;;;;;;1.00;1.00;;;;;22.25;52.68;99529.42;110475;1264;14869;-61
2022/09/18 04:31:49;;;;;;;;;1.00;1.00;;;;;22.25;52.65;99529.35;110385;1262;13884;-59
2022/09/18 04:34:19;;;;;;;;;1.00;1.00;;;;;22.25;52.71;99528.33;110368;1265;13172;-59
2022/09/18 04:36:47;;;;;;;;;1.00;1.00;;;;;22.26;52.63;99526.98;110353;1264;13620;-59
2022/09/18 04:39:14;;;;;;;;;1.00;1.00;;;;;22.26;52.61;99528.19;110424;1264;12914;-60
2022/09/18 04:41:44;;;;;;;;;1.00;1.00;;;;;22.26;52.59;99523.70;110436;1264;13150;-59
2022/09/18 04:44:11;;;;;;;;;1.00;1.00;;;;;22.26;52.58;99527.10;110318;1265;13620;-60
2022/09/18 04:46:38;;;;;;;;;1.00;1.00;;;;;22.25;52.57;99526.68;110410;1264;13772;-60
2022/09/18 04:49:06;;;;;;;;;1.00;1.00;;;;;22.24;52.60;99525.44;110417;1264;12938;-62
2022/09/18 04:51:33;;;;;;;;;1.00;1.00;;;;;22.24;52.53;99525.17;110430;1264;13930;-60
2022/09/18 04:54:00;;;;;;;;;1.00;1.00;;;;;22.24;52.59;99530.22;110455;1264;13209;-59
2022/09/18 04:56:27;;;;;;;;;1.00;1.00;;;;;22.23;52.53;99524.59;110430;1263;12638;-60
2022/09/18 04:58:55;;;;;;;;;1.00;1.00;;;;;22.24;52.45;99524.16;110396;1263;20635;-57
2022/09/18 05:01:22;;;;;;;;;1.00;1.00;;;;;22.27;52.47;99524.66;110508;1264;12273;-59
2022/09/18 05:03:49;;;;;;;;;1.00;1.00;;;;;22.26;52.42;99523.38;110433;1265;13341;-61
2022/09/18 05:06:17;;;;;;;;;1.00;1.00;;;;;22.26;52.41;99526.60;110408;1264;13083;-58
2022/09/18 05:08:44;;;;;;;;;1.00;1.00;;;;;22.28;52.39;99529.61;110441;1263;13613;-60
2022/09/18 05:11:11;;;;;;;;;1.00;1.00;;;;;22.30;52.39;99530.83;110439;1264;13165;-60
2022/09/18 05:13:39;;;;;;;;;2.00;2.00;;;;;22.30;52.37;99530.78;110438;1262;13186;-61
2022/09/18 05:16:07;;;;;;;;;2.00;1.00;;;;;22.33;52.37;99535.42;110449;1265;12629;-61
2022/09/18 05:18:34;;;;;;;;;2.00;1.00;;;;;22.36;52.64;99535.33;110409;1264;13162;-60
2022/09/18 05:21:02;;;;;;;;;1.33;1.00;;;;;22.37;53.37;99538.86;110441;1265;12922;-59
2022/09/18 05:23:29;;;;;;;;;1.00;1.00;;;;;22.37;54.15;99538.31;110420;1264;13268;-60
2022/09/18 05:25:56;;;;;;;;;1.00;1.00;;;;;22.37;53.90;99539.75;110459;1264;13625;-58
2022/09/18 05:28:23;;;;;;;;;1.00;1.00;;;;;22.36;53.95;99539.45;110485;1264;11741;-60
2022/09/18 05:30:51;;;;;;;;;1.00;1.00;;;;;22.36;53.93;99540.21;110427;1263;12806;-61
2022/09/18 05:33:18;;;;;;;;;2.00;1.00;;;;;22.37;53.71;99543.35;110442;1262;12219;-59
2022/09/18 05:35:45;;;;;;;;;1.00;1.00;;;;;22.36;53.76;99542.27;110472;1263;13066;-61
2022/09/18 05:38:12;;;;;;;;;1.00;1.00;;;;;22.35;53.70;99540.20;110461;1263;12972;-61
2022/09/18 05:40:40;;;;;;;;;1.00;1.00;;;;;22.35;53.55;99544.73;110355;1264;12929;-55
2022/09/18 05:43:07;;;;;;;;;1.00;1.00;;;;;22.35;53.59;99544.27;110450;1264;12961;-57
2022/09/18 05:45:34;;;;;;;;;2.33;2.00;;;;;22.34;53.53;99544.41;110398;1264;13612;-61
2022/09/18 05:48:02;;;;;;;;;1.00;1.00;;;;;22.35;53.54;99544.40;110392;1262;13752;-57
2022/09/18 05:50:29;;;;;;;;;2.00;2.00;;;;;22.28;53.20;99545.40;110447;1264;13039;-60
2022/09/18 05:52:57;;;;;;;;;2.00;2.00;;;;;22.17;52.19;99538.27;110441;1264;13162;-58
2022/09/18 05:55:24;;;;;;;;;1.00;1.00;;;;;22.12;51.82;99539.38;110490;1264;13174;-60
2022/09/18 05:57:51;;;;;;;;;3.33;2.67;;;;;22.18;52.19;99536.61;110462;1264;13223;-58
2022/09/18 06:00:18;;;;;;;;;1.67;1.67;;;;;22.25;52.23;99537.69;110444;1263;13250;-60
2022/09/18 06:02:46;;;;;;;;;2.00;2.00;;;;;22.31;52.22;99539.89;110435;1263;13055;-58
2022/09/18 06:05:13;;;;;;;;;2.00;2.00;;;;;22.36;52.27;99537.35;110456;1265;13155;-60
2022/09/18 06:07:41;;;;;;;;;2.00;2.00;;;;;22.36;52.21;99535.30;110449;1264;12250;-58
2022/09/18 06:10:08;;;;;;;;;1.00;1.00;;;;;22.35;52.31;99532.33;110476;1264;13186;-58
2022/09/18 06:12:35;;;;;;;;;1.33;1.00;;;;;22.35;52.35;99533.18;110423;1264;12956;-60
2022/09/18 06:15:02;;;;;;;;;2.00;2.00;;;;;22.35;52.36;99531.47;110451;1264;13093;-60
2022/09/18 06:17:29;;;;;;;;;2.00;1.00;;;;;22.34;52.62;99530.30;110462;1264;13051;-59
2022/09/18 06:19:58;;;;;;;;;1.67;1.00;;;;;22.35;52.70;99529.88;110471;1265;12854;-60
2022/09/18 06:22:26;;;;;;;;;2.67;2.00;;;;;22.38;52.84;99529.79;110507;1265;13111;-58
2022/09/18 06:24:53;;;;;;;;;3.00;3.00;;;;;22.39;53.07;99534.89;110415;1264;13188;-60
2022/09/18 06:27:20;;;;;;;;;2.33;1.00;;;;;22.40;53.13;99535.65;110431;1265;13177;-62
2022/09/18 06:29:47;;;;;;;;;2.67;2.67;;;;;22.43;53.15;99538.80;110313;1262;13050;-59
2022/09/18 06:32:15;;;;;;;;;7.00;7.00;;;;;22.44;53.24;99537.95;110423;1264;14224;-59
2022/09/18 06:34:42;;;;;;;;;7.00;5.00;;;;;22.42;53.33;99546.73;110477;1262;21022;-59
2022/09/18 06:37:09;;;;;;;;;6.00;5.00;;;;;22.40;53.44;99545.67;110409;1264;13605;-58
2022/09/18 06:39:36;;;;;;;;;3.00;3.00;;;;;22.40;53.24;99546.39;110421;1264;14148;-58
2022/09/18 06:42:04;;;;;;;;;3.00;3.00;;;;;22.40;53.25;99543.62;110398;1265;14608;-61
2022/09/18 06:44:31;;;;;;;;;3.00;2.67;;;;;22.40;53.27;99548.08;110434;1264;14581;-61
2022/09/18 06:46:58;;;;;;;;;4.33;3.00;;;;;22.38;53.12;99552.16;110379;1264;17108;-60
2022/09/18 06:49:26;;;;;;;;;2.00;2.00;;;;;22.37;53.12;99551.42;110453;1264;13130;-60
2022/09/18 06:51:54;;;;;;;;;2.00;2.00;;;;;22.37;53.16;99548.82;110425;1264;14357;-60
2022/09/18 06:54:21;;;;;;;;;2.00;2.00;;;;;22.37;53.05;99551.46;110407;1262;14127;-59
2022/09/18 06:56:49;;;;;;;;;2.00;2.00;;;;;22.35;53.07;99548.91;110458;1265;14071;-59
2022/09/18 06:59:16;;;;;;;;;2.33;2.00;;;;;22.34;53.05;99549.57;110454;1264;14180;-59
2022/09/18 07:01:43;;;;;;;;;3.00;3.00;;;;;22.35;53.02;99552.06;110472;1262;14559;-60
2022/09/18 07:04:10;;;;;;;;;2.00;2.00;;;;;22.34;53.08;99551.24;110476;1264;12411;-60
2022/09/18 07:06:38;;;;;;;;;1.67;1.67;;;;;22.34;53.10;99550.53;110498;1263;15070;-58
2022/09/18 07:09:05;;;;;;;;;1.50;1.50;;;;;22.34;53.24;99552.17;110483;1262;13805;-60
2022/09/18 07:11:32;;;;;;;;;2.00;2.00;;;;;22.35;53.33;99552.26;110415;1264;14923;-60
2022/09/18 07:14:00;;;;;;;;;3.00;2.00;;;;;22.37;53.16;99558.69;110386;1264;14815;-58
2022/09/18 07:16:27;;;;;;;;;1.67;1.67;;;;;22.37;53.25;99558.43;110467;1264;12925;-61
2022/09/18 07:18:54;;;;;;;;;1.00;1.00;;;;;22.37;53.21;99556.79;110447;1264;14678;-59
2022/09/18 07:21:22;;;;;;;;;1.33;1.33;;;;;22.37;53.65;99556.25;110421;1264;15019;-61
2022/09/18 07:23:49;;;;;;;;;1.50;1.00;;;;;22.36;54.25;99559.28;110377;1265;14620;-61
2022/09/18 07:26:17;;;;;;;;;1.33;1.00;;;;;22.37;54.16;99558.27;110479;1264;14522;-60
2022/09/18 07:28:45;;;;;;;;;2.00;2.00;;;;;22.36;54.12;99557.52;110384;1262;14263;-61
2022/09/18 07:31:12;;;;;;;;;1.33;1.00;;;;;22.36;53.97;99556.09;110383;1264;12851;-61
2022/09/18 07:33:40;;;;;;;;;2.00;2.00;;;;;22.36;53.75;99553.52;110326;1265;13982;-59
2022/09/18 07:36:07;;;;;;;;;2.00;2.00;;;;;22.37;53.66;99559.19;109597;1264;1060920;-62
2022/09/18 07:38:36;;;;;;;;;1.00;1.00;;;;;22.38;53.70;99562.04;110445;1264;14367;-60
2022/09/18 07:41:03;;;;;;;;;3.00;2.00;;;;;22.37;53.78;99563.94;110438;1262;13909;-61
2022/09/18 07:43:31;;;;;;;;;51.00;39.00;;;;;22.41;53.72;99563.95;110283;1262;13230;-61
2022/09/18 07:45:58;;;;;;;;;22.50;18.50;;;;;22.45;53.44;99560.66;110392;1263;14902;-61
2022/09/18 07:48:25;;;;;;;;;80.33;58.33;;;;;22.45;53.14;99560.62;110360;1264;14564;-60
2022/09/18 07:50:52;;;;;;;;;153.50;119.75;;;;;22.44;53.26;99561.55;110398;1264;14705;-59
2022/09/18 07:53:20;;;;;;;;;126.25;103.75;;;;;22.46;53.36;99564.95;110419;1263;15197;-57
2022/09/18 07:55:47;;;;;;;;;122.50;87.50;;;;;22.47;53.24;99564.21;110414;1264;14378;-59
2022/09/18 07:58:14;;;;;;;;;99.33;69.00;;;;;22.47;53.15;99563.09;110441;1265;10343;-61
2022/09/18 08:00:42;;;;;;;;;86.33;63.67;;;;;22.49;53.20;99563.17;110372;1264;15237;-57
2022/09/18 08:03:10;;;;;;;;;83.00;60.67;;;;;22.53;53.27;99564.65;110398;1264;14913;-61
2022/09/18 08:05:37;;;;;;;;;81.50;59.00;;;;;22.51;53.34;99569.95;110417;1264;14306;-59
2022/09/18 08:08:05;;;;;;;;;63.50;49.50;;;;;22.50;53.45;99566.31;110377;1263;14306;-62
2022/09/18 08:10:32;;;;;;;;;58.33;43.33;;;;;22.53;53.74;99564.02;110456;1264;12964;-59
2022/09/18 08:12:59;;;;;;;;;68.67;45.00;;;;;22.60;53.86;99560.64;110384;1262;13557;-60
2022/09/18 08:15:26;;;;;;;;;60.00;45.67;;;;;22.63;53.80;99558.89;110374;1264;14163;-59
2022/09/18 08:17:53;;;;;;;;;49.33;42.33;;;;;22.64;53.67;99563.76;110371;1264;14681;-59
2022/09/18 08:20:22;;;;;;;;;51.33;38.67;;;;;22.63;53.38;99561.83;110403;1264;14362;-60
2022/09/18 08:22:49;;;;;;;;;46.33;38.67;;;;;22.64;53.27;99560.10;110383;1264;14321;-60
2022/09/18 08:25:17;;;;;;;;;47.67;37.00;;;;;22.66;53.31;99560.39;110370;1264;13244;-59
2022/09/18 08:27:44;;;;;;;;;39.33;35.00;;;;;22.66;53.32;99560.68;110334;1264;13307;-59
2022/09/18 08:30:12;;;;;;;;;35.50;28.50;;;;;22.70;53.17;99559.24;110335;1265;14914;-58
2022/09/18 08:32:39;;;;;;;;;25.33;24.00;;;;;22.70;53.29;99563.48;110489;1265;13554;-58
2022/09/18 08:35:06;;;;;;;;;31.00;23.67;;;;;22.71;53.35;99563.40;110406;1264;14017;-59
2022/09/18 08:37:34;;;;;;;;;26.67;24.00;;;;;22.70;53.26;99566.43;110408;1264;18250;-60
2022/09/18 08:40:02;;;;;;;;;29.33;26.00;;;;;22.70;53.19;99566.97;110427;1265;15308;-61
2022/09/18 08:42:29;;;;;;;;;24.67;20.00;;;;;22.70;53.12;99567.68;110331;1264;14692;-61
2022/09/18 08:44:57;;;;;;;;;22.33;20.00;;;;;22.65;53.22;99567.24;110360;1264;13385;-61
2022/09/18 08:47:25;;;;;;;;;24.33;23.00;;;;;22.59;53.27;99572.02;110418;1263;13480;-59
2022/09/18 08:49:52;;;;;;;;;21.00;18.00;;;;;22.59;53.35;99570.39;110422;1262;13215;-59
2022/09/18 08:52:20;;;;;;;;;17.00;16.00;;;;;22.58;53.31;99571.86;110375;1265;13252;-55
2022/09/18 08:54:47;;;;;;;;;18.33;13.67;;;;;22.57;53.31;99572.20;109949;1264;14050;-57
2022/09/18 08:57:15;;;;;;;;;20.00;17.00;;;;;22.55;53.23;99575.91;110276;1264;13102;-58
2022/09/18 08:59:42;;;;;;;;;16.00;14.00;;;;;22.56;53.40;99574.56;110394;1265;13122;-58
2022/09/18 09:02:09;;;;;;;;;14.00;12.33;;;;;22.55;53.32;99575.73;110310;1265;14952;-56
2022/09/18 09:04:37;;;;;;;;;14.00;14.00;;;;;22.51;53.30;99576.00;110401;1265;13125;-57
2022/09/18 09:07:04;;;;;;;;;14.00;10.33;;;;;22.47;53.35;99578.55;110318;1265;13094;-58
2022/09/18 09:09:31;;;;;;;;;11.00;10.00;;;;;22.45;53.40;99576.83;110443;1262;13086;-57
2022/09/18 09:11:58;;;;;;;;;15.00;10.67;;;;;22.43;53.34;99579.29;110463;1262;18117;-57
2022/09/18 09:14:26;;;;;;;;;10.67;9.33;;;;;22.43;53.31;99581.55;110444;1265;14740;-54
2022/09/18 09:16:54;;;;;;;;;10.00;7.00;;;;;22.41;53.19;99577.94;110434;1265;15291;-57
2022/09/18 09:19:22;;;;;;;;;8.00;7.00;;;;;22.41;53.15;99582.47;110493;1264;13184;-58
2022/09/18 09:21:49;;;;;;;;;10.67;9.00;;;;;22.38;53.14;99581.77;110407;1263;14282;-59
2022/09/18 09:24:19;;;;;;;;;7.33;7.33;;;;;22.36;53.07;99581.49;110416;1263;14454;-56
2022/09/18 09:26:47;;;;;;;;;7.00;6.00;;;;;22.36;53.05;99582.66;110399;1264;14712;-57
2022/09/18 09:29:15;;;;;;;;;8.33;6.33;;;;;22.36;52.97;99584.86;110441;1264;13722;-57
2022/09/18 09:31:42;;;;;;;;;6.33;6.00;;;;;22.36;52.95;99583.59;110487;1264;13065;-59
2022/09/18 09:34:09;;;;;;;;;7.00;5.67;;;;;22.36;52.87;99586.15;110452;1264;13194;-58
2022/09/18 09:36:36;;;;;;;;;7.00;5.00;;;;;22.35;52.84;99591.90;110465;1265;13485;-57
2022/09/18 09:39:05;;;;;;;;;6.00;6.00;;;;;22.35;52.80;99591.58;110441;1262;14440;-58
2022/09/18 09:41:32;;;;;;;;;6.00;5.33;;;;;22.35;52.70;99593.02;110411;1264;14214;-57
2022/09/18 09:43:59;;;;;;;;;6.00;5.33;;;;;22.34;52.78;99598.08;110479;1263;16365;-57
2022/09/18 09:46:27;;;;;;;;;6.00;6.00;;;;;22.34;52.69;99601.73;110399;1264;12669;-59
2022/09/18 09:48:54;;;;;;;;;3.00;3.00;;;;;22.34;52.64;99602.73;110459;1264;13559;-57
2022/09/18 09:51:22;;;;;;;;;5.00;5.00;;;;;22.35;52.61;99605.39;110427;1264;13179;-58
2022/09/18 09:53:51;;;;;;;;;6.00;5.00;;;;;22.34;52.57;99605.96;110435;1262;12931;-57
2022/09/18 09:56:19;;;;;;;;;3.00;3.00;;;;;22.34;52.62;99612.02;110479;1264;14081;-58
2022/09/18 09:58:46;;;;;;;;;3.00;3.00;;;;;22.34;52.50;99611.14;110430;1264;13700;-59
2022/09/18 10:01:13;;;;;;;;;3.00;3.00;;;;;22.32;52.53;99612.49;110465;1264;13062;-58
2022/09/18 10:03:42;;;;;;;;;2.00;2.00;;;;;22.33;52.47;99616.89;110434;1264;13423;-56
2022/09/18 10:06:09;;;;;;;;;4.33;4.33;;;;;22.33;52.40;99615.80;110454;1264;14120;-58
2022/09/18 10:08:36;;;;;;;;;4.33;4.33;;;;;22.32;52.46;99622.04;110487;1262;13167;-56
2022/09/18 10:11:07;;;;;;;;;2.33;2.33;;;;;22.31;52.41;99619.27;110454;1265;14695;-58
2022/09/18 10:13:34;;;;;;;;;3.00;3.00;;;;;22.31;52.43;99624.30;110434;1264;13128;-57
2022/09/18 10:16:03;;;;;;;;;5.00;3.00;;;;;22.32;52.31;99626.06;110440;1265;13498;-57
2022/09/18 10:18:30;;;;;;;;;4.33;4.33;;;;;22.31;52.27;99629.05;110449;1263;14358;-58
2022/09/18 10:20:57;;;;;;;;;3.00;2.00;;;;;22.31;52.31;99627.70;110432;1265;14938;-58
2022/09/18 10:23:24;;;;;;;;;3.00;3.00;;;;;22.31;52.24;99628.63;110361;1265;12525;-58
2022/09/18 10:25:52;;;;;;;;;5.00;3.00;;;;;22.32;52.19;99633.16;110443;1265;13076;-58
2022/09/18 10:28:20;;;;;;;;;3.00;2.00;;;;;22.32;52.25;99634.58;110532;1264;12999;-57
2022/09/18 10:30:47;;;;;;;;;3.00;3.00;;;;;22.32;52.19;99634.58;110358;1264;13011;-58
2022/09/18 10:33:14;;;;;;;;;6.67;6.67;;;;;22.34;52.01;99638.45;110444;1265;12931;-60
2022/09/18 10:35:42;;;;;;;;;10.00;9.00;;;;;21.89;50.82;99635.70;110405;1264;13436;-57
2022/09/18 10:38:10;;;;;;;;;16.00;14.67;;;;;21.38;50.92;99636.68;110419;1264;17336;-57
2022/09/18 10:40:38;;;;;;;;;12.33;10.67;;;;;20.90;50.92;99638.56;110465;1264;13199;-58
2022/09/18 10:43:06;;;;;;;;;14.67;13.33;;;;;20.49;51.29;99644.28;110440;1264;13395;-58
2022/09/18 10:45:35;;;;;;;;;13.00;13.00;;;;;20.41;51.27;99648.48;110409;1264;13332;-58
2022/09/18 10:48:02;;;;;;;;;13.00;11.00;;;;;20.36;51.29;99645.37;110441;1264;15029;-59
2022/09/18 10:50:29;;;;;;;;;9.00;8.00;;;;;20.48;51.14;99646.79;110242;1264;13034;-57
2022/09/18 10:52:56;;;;;;;;;10.00;9.00;;;;;20.96;50.59;99649.64;110405;1264;13107;-59
2022/09/18 10:55:24;;;;;;;;;10.00;9.00;;;;;21.31;50.01;99648.88;110427;1264;13163;-59
2022/09/18 10:57:51;;;;;;;;;10.67;10.00;;;;;21.54;49.42;99648.21;110411;1264;13642;-59
2022/09/18 11:00:18;;;;;;;;;9.00;9.00;;;;;21.68;48.98;99645.15;110399;1264;13012;-58
2022/09/18 11:02:45;;;;;;;;;10.33;10.00;;;;;21.74;48.94;99645.95;110416;1264;13427;-60
2022/09/18 11:05:13;;;;;;;;;13.00;11.00;;;;;21.80;48.83;99641.92;110372;1264;13185;-57
2022/09/18 11:07:40;;;;;;;;;9.33;9.00;;;;;21.83;48.72;99646.54;110425;1265;12801;-60
2022/09/18 11:10:07;;;;;;;;;13.00;11.00;;;;;21.85;48.70;99644.70;110380;1265;13665;-60
2022/09/18 11:12:34;;;;;;;;;7.67;7.00;;;;;21.87;48.78;99643.86;110406;1264;13026;-59
2022/09/18 11:15:02;;;;;;;;;10.00;10.00;;;;;21.91;48.69;99643.17;110401;1264;13960;-59
2022/09/18 11:17:29;;;;;;;;;10.00;9.00;;;;;21.92;48.74;99638.97;110363;1264;13820;-59
2022/09/18 11:19:56;;;;;;;;;10.33;9.67;;;;;21.95;48.82;99637.80;110326;1264;13483;-60
2022/09/18 11:22:24;;;;;;;;;8.33;6.67;;;;;21.92;48.85;99639.64;110414;1264;12864;-59